createdAt,value
2019-05-06T00:00:30.294Z,2.27
2019-05-06T00:03:00.461Z,2.67
2019-05-06T00:05:30.878Z,2.50
2019-05-06T00:08:01.018Z,2.50
2019-05-06T00:10:34.286Z,2.50
2019-05-06T00:13:05.555Z,2.70
2019-05-06T00:15:35.878Z,2.20
2019-05-06T00:18:06.074Z,2.47
2019-05-06T00:20:36.178Z,2.70
2019-05-06T00:23:14.307Z,2.85
2019-05-06T00:25:55.226Z,2.70
2019-05-06T00:28:27.066Z,2.77
2019-05-06T00:31:10.418Z,2.95
2019-05-06T00:33:34.099Z,2.92
2019-05-06T00:36:04.815Z,2.75
2019-05-06T00:38:35.425Z,2.60
2019-05-06T00:41:07.206Z,2.90
2019-05-06T00:43:37.410Z,3.02
2019-05-06T00:46:07.626Z,2.55
2019-05-06T00:48:37.824Z,2.98
2019-05-06T00:51:07.933Z,2.87
2019-05-06T00:53:39.677Z,2.45
2019-05-06T00:56:09.816Z,2.98
2019-05-06T00:58:40.015Z,2.65
2019-05-06T01:01:23.169Z,2.40
2019-05-06T01:03:44.145Z,3.22
2019-05-06T01:06:14.206Z,3.20
2019-05-06T01:08:44.505Z,3.22
2019-05-06T01:11:15.669Z,3.27
2019-05-06T01:13:48.522Z,3.10
2019-05-06T01:16:22.078Z,3.35
2019-05-06T01:21:21.293Z,3.30
2019-05-06T01:23:51.530Z,3.45
2019-05-06T01:26:21.610Z,3.02
2019-05-06T01:28:51.740Z,3.15
2019-05-06T01:31:21.826Z,3.00
2019-05-06T01:33:53.567Z,3.10
2019-05-06T01:36:24.946Z,3.15
2019-05-06T01:39:13.825Z,3.35
2019-05-06T01:41:47.651Z,3.05
2019-05-06T01:44:17.974Z,3.22
2019-05-06T01:46:48.100Z,3.02
2019-05-06T01:49:18.210Z,3.35
2019-05-06T01:51:48.314Z,2.90
2019-05-06T01:54:18.390Z,3.37
2019-05-06T01:56:48.502Z,3.65
2019-05-06T01:59:18.729Z,3.02
2019-05-06T02:01:59.926Z,3.05
2019-05-06T02:04:20.690Z,3.72
2019-05-06T02:06:50.765Z,3.72
2019-05-06T02:09:20.954Z,3.50
2019-05-06T02:11:51.032Z,3.47
2019-05-06T02:14:21.221Z,4.00
2019-05-06T02:16:51.493Z,3.90
2019-05-06T02:19:21.596Z,3.90
2019-05-06T02:21:56.429Z,3.90
2019-05-06T02:24:28.227Z,4.00
2019-05-06T02:26:58.351Z,4.40
2019-05-06T02:29:39.320Z,4.50
2019-05-06T02:32:31.335Z,4.85
2019-05-06T02:35:05.183Z,4.20
2019-05-06T02:37:39.421Z,4.65
2019-05-06T02:40:25.667Z,4.65
2019-05-06T02:42:55.879Z,4.17
2019-05-06T02:45:26.126Z,4.50
2019-05-06T02:48:04.441Z,4.33
2019-05-06T02:50:45.672Z,4.85
2019-05-06T02:53:17.421Z,4.60
2019-05-06T02:55:47.522Z,4.65
2019-05-06T02:58:17.640Z,4.40
2019-05-06T03:00:47.808Z,5.22
2019-05-06T03:03:17.858Z,5.70
2019-05-06T03:05:48.062Z,4.85
2019-05-06T03:08:18.148Z,4.97
2019-05-06T03:10:48.246Z,5.30
2019-05-06T03:13:18.383Z,5.00
2019-05-06T03:15:48.626Z,4.60
2019-05-06T03:18:18.706Z,5.10
2019-05-06T03:20:59.609Z,5.05
2019-05-06T03:23:44.665Z,5.03
2019-05-06T03:26:14.866Z,5.40
2019-05-06T03:28:45.076Z,5.17
2019-05-06T03:31:16.733Z,4.87
2019-05-06T03:34:05.964Z,4.90
2019-05-06T03:36:25.597Z,5.10
2019-05-06T03:38:53.339Z,4.90
2019-05-06T03:41:23.378Z,4.50
2019-05-06T03:43:54.460Z,5.25
2019-05-06T03:46:43.903Z,5.10
2019-05-06T03:49:14.152Z,4.72
2019-05-06T03:51:44.302Z,5.00
2019-05-06T03:54:15.227Z,5.17
2019-05-06T03:56:46.365Z,5.12
2019-05-06T03:59:17.534Z,5.08
2019-05-06T04:01:47.701Z,4.92
2019-05-06T04:04:17.821Z,4.85
2019-05-06T04:06:48.101Z,5.08
2019-05-06T04:09:18.301Z,4.85
2019-05-06T04:11:48.383Z,4.75
2019-05-06T04:14:18.503Z,4.40
2019-05-06T04:16:56.001Z,4.50
2019-05-06T04:19:34.001Z,4.65
2019-05-06T04:22:05.863Z,4.55
2019-05-06T04:24:43.784Z,3.90
2019-05-06T04:27:50.043Z,3.95
2019-05-06T04:30:24.058Z,3.77
2019-05-06T04:32:53.297Z,4.15
2019-05-06T04:35:23.749Z,3.58
2019-05-06T04:37:54.156Z,3.60
2019-05-06T04:40:24.362Z,3.77
2019-05-06T04:42:55.225Z,3.62
2019-05-06T04:45:25.346Z,3.60
2019-05-06T04:47:55.480Z,3.42
2019-05-06T04:50:25.717Z,3.45
2019-05-06T04:53:05.723Z,3.02
2019-05-06T04:55:37.083Z,2.80
2019-05-06T04:58:07.488Z,2.70
2019-05-06T05:00:38.447Z,3.27
2019-05-06T05:03:08.668Z,3.20
2019-05-06T05:05:40.356Z,3.20
2019-05-06T05:08:13.140Z,2.87
2019-05-06T05:10:44.846Z,3.17
2019-05-06T05:13:25.635Z,2.40
2019-05-06T05:16:02.279Z,2.87
2019-05-06T05:18:33.691Z,2.50
2019-05-06T05:21:03.820Z,2.72
2019-05-06T05:23:33.945Z,2.62
2019-05-06T05:26:04.116Z,2.92
2019-05-06T05:28:34.252Z,2.60
2019-05-06T05:31:04.330Z,2.30
2019-05-06T05:33:35.649Z,2.17
2019-05-06T05:36:05.805Z,2.75
2019-05-06T05:38:36.524Z,2.20
2019-05-06T05:41:06.610Z,2.60
2019-05-06T05:43:47.563Z,2.85
2019-05-06T05:46:17.710Z,2.65
2019-05-06T05:49:07.764Z,2.45
2019-05-06T05:51:37.850Z,2.60
2019-05-06T05:54:07.966Z,2.55
2019-05-06T05:56:38.057Z,2.45
2019-05-06T05:59:08.192Z,3.00
2019-05-06T06:01:38.352Z,2.87
2019-05-06T06:04:09.098Z,2.80
2019-05-06T06:06:39.260Z,2.80
2019-05-06T06:09:09.342Z,2.90
2019-05-06T06:11:47.734Z,2.83
2019-05-06T06:14:35.859Z,3.02
2019-05-06T06:17:23.288Z,2.90
2019-05-06T06:20:12.184Z,3.30
2019-05-06T06:22:42.584Z,3.40
2019-05-06T06:25:14.204Z,4.00
2019-05-06T06:27:51.852Z,4.20
2019-05-06T06:30:28.941Z,3.98
2019-05-06T06:33:02.419Z,3.90
2019-05-06T06:35:51.966Z,3.12
2019-05-06T06:38:40.396Z,3.85
2019-05-06T06:41:12.124Z,3.85
2019-05-06T06:43:43.269Z,4.17
2019-05-06T06:46:13.468Z,3.92
2019-05-06T06:48:43.900Z,3.77
2019-05-06T06:51:13.993Z,4.30
2019-05-06T06:53:44.157Z,4.37
2019-05-06T06:56:32.970Z,4.97
2019-05-06T06:59:12.810Z,4.75
2019-05-06T07:01:47.284Z,4.95
2019-05-06T07:04:23.147Z,4.92
2019-05-06T07:06:55.010Z,4.85
2019-05-06T07:09:25.130Z,5.23
2019-05-06T07:11:55.224Z,5.22
2019-05-06T07:14:25.350Z,5.25
2019-05-06T07:16:55.506Z,6.10
2019-05-06T07:19:33.020Z,5.72
2019-05-06T07:22:06.385Z,5.17
2019-05-06T07:24:34.849Z,6.17
2019-05-06T07:27:09.439Z,6.12
2019-05-06T07:29:39.726Z,6.08
2019-05-06T07:32:12.188Z,5.87
2019-05-06T07:34:42.165Z,6.22
2019-05-06T07:37:13.261Z,6.00
2019-05-06T07:39:43.401Z,6.40
2019-05-06T07:42:15.134Z,6.62
2019-05-06T07:45:06.431Z,6.90
2019-05-06T07:47:42.610Z,6.33
2019-05-06T07:50:13.273Z,6.92
2019-05-06T07:52:45.085Z,6.92
2019-05-06T07:55:15.230Z,6.50
2019-05-06T07:57:45.382Z,6.80
2019-05-06T08:00:15.663Z,6.03
2019-05-06T08:02:45.850Z,6.25
2019-05-06T08:05:15.935Z,6.03
2019-05-06T08:07:46.037Z,6.10
2019-05-06T08:10:16.277Z,5.67
2019-05-06T08:12:46.434Z,6.20
2019-05-06T08:15:17.067Z,6.95
2019-05-06T08:17:47.220Z,6.42
2019-05-06T08:20:17.474Z,6.53
2019-05-06T08:22:52.957Z,6.33
2019-05-06T08:25:23.908Z,6.50
2019-05-06T08:27:53.994Z,6.95
2019-05-06T08:30:24.315Z,7.27
2019-05-06T08:32:54.363Z,6.22
2019-05-06T08:35:24.504Z,5.42
2019-05-06T08:37:54.661Z,6.30
2019-05-06T08:40:26.467Z,5.80
2019-05-06T08:42:56.533Z,4.80
2019-05-06T08:45:26.767Z,5.62
2019-05-06T08:47:56.902Z,5.65
2019-05-06T08:50:32.476Z,6.22
2019-05-06T08:53:17.973Z,5.92
2019-05-06T08:55:49.492Z,5.53
2019-05-06T08:58:22.129Z,5.60
2019-05-06T09:01:03.064Z,6.10
2019-05-06T09:03:33.253Z,5.58
2019-05-06T09:06:03.444Z,5.90
2019-05-06T09:08:33.594Z,4.87
2019-05-06T09:11:03.794Z,5.80
2019-05-06T09:13:33.964Z,5.92
2019-05-06T09:16:04.326Z,5.90
2019-05-06T09:18:34.505Z,6.12
2019-05-06T09:21:04.702Z,5.97
2019-05-06T09:23:34.884Z,6.30
2019-05-06T09:26:06.660Z,6.37
2019-05-06T09:28:42.666Z,5.30
2019-05-06T09:31:17.403Z,5.58
2019-05-06T09:33:49.235Z,5.33
2019-05-06T09:36:19.362Z,4.80
2019-05-06T09:38:52.883Z,4.20
2019-05-06T09:41:23.090Z,3.45
2019-05-06T09:43:53.573Z,4.20
2019-05-06T09:46:23.742Z,3.47
2019-05-06T09:49:12.781Z,4.10
2019-05-06T09:51:42.642Z,3.02
2019-05-06T09:54:17.325Z,3.50
2019-05-06T09:56:58.211Z,3.27
2019-05-06T09:59:28.386Z,4.08
2019-05-06T10:01:58.661Z,3.10
2019-05-06T10:04:28.786Z,3.42
2019-05-06T10:07:00.116Z,2.67
2019-05-06T10:09:32.679Z,2.92
2019-05-06T10:12:02.954Z,2.55
2019-05-06T10:14:33.144Z,2.33
2019-05-06T10:17:04.370Z,2.70
2019-05-06T10:19:34.782Z,2.55
2019-05-06T10:22:05.216Z,2.27
2019-05-06T10:24:35.301Z,1.95
2019-05-06T10:27:05.581Z,2.00
2019-05-06T10:29:37.325Z,1.77
2019-05-06T10:32:14.924Z,2.37
2019-05-06T10:34:45.081Z,2.10
2019-05-06T10:37:25.379Z,1.95
2019-05-06T10:40:19.727Z,3.22
2019-05-06T10:43:15.588Z,2.70
2019-05-06T10:45:45.738Z,2.58
2019-05-06T10:48:15.880Z,2.90
2019-05-06T10:50:47.736Z,2.70
2019-05-06T10:53:19.284Z,2.65
2019-05-06T10:55:53.498Z,2.90
2019-05-06T11:00:54.453Z,2.77
2019-05-06T11:03:27.547Z,2.58
2019-05-06T11:05:57.615Z,2.98
2019-05-06T11:08:27.846Z,2.90
2019-05-06T11:11:11.559Z,3.12
2019-05-06T11:13:32.139Z,3.10
2019-05-06T11:16:03.427Z,3.40
2019-05-06T11:18:33.639Z,3.20
2019-05-06T11:21:03.897Z,3.17
2019-05-06T11:23:34.064Z,2.80
2019-05-06T11:26:04.170Z,2.95
2019-05-06T11:28:42.675Z,3.08
2019-05-06T11:31:22.819Z,3.30
2019-05-06T11:34:00.955Z,3.45
2019-05-06T11:36:32.770Z,2.90
2019-05-06T11:39:03.941Z,2.87
2019-05-06T11:41:35.232Z,3.12
2019-05-06T11:44:08.678Z,3.37
2019-05-06T11:46:37.143Z,2.90
2019-05-06T11:49:07.288Z,2.72
2019-05-06T11:51:38.163Z,3.42
2019-05-06T11:54:18.603Z,3.05
2019-05-06T11:56:48.838Z,3.45
2019-05-06T11:59:13.098Z,3.10
2019-05-06T12:01:48.069Z,3.45
2019-05-06T12:04:18.194Z,3.00
2019-05-06T12:06:48.282Z,2.72
2019-05-06T12:09:19.487Z,3.40
2019-05-06T12:11:49.650Z,2.77
2019-05-06T12:14:19.796Z,2.40
2019-05-06T12:16:49.995Z,2.70
2019-05-06T12:19:22.300Z,3.17
2019-05-06T12:21:51.915Z,2.98
2019-05-06T12:24:22.946Z,3.10
2019-05-06T12:26:53.195Z,3.33
2019-05-06T12:29:23.368Z,3.10
2019-05-06T12:32:00.859Z,2.90
2019-05-06T12:34:32.403Z,3.87
2019-05-06T12:37:04.372Z,3.47
2019-05-06T12:42:23.200Z,3.20
2019-05-06T12:44:55.144Z,2.80
2019-05-06T12:47:33.046Z,2.98
2019-05-06T12:50:03.971Z,2.98
2019-05-06T12:52:34.157Z,2.70
2019-05-06T12:55:18.213Z,3.10
2019-05-06T12:57:38.198Z,2.87
2019-05-06T13:00:08.889Z,3.00
2019-05-06T13:02:39.061Z,3.37
2019-05-06T13:05:09.201Z,2.77
2019-05-06T13:07:42.068Z,2.50
2019-05-06T13:10:13.691Z,2.92
2019-05-06T13:12:45.514Z,3.15
2019-05-06T13:15:15.939Z,2.80
2019-05-06T13:17:46.123Z,2.58
2019-05-06T13:20:16.243Z,2.95
2019-05-06T13:22:58.330Z,3.12
2019-05-06T13:25:28.474Z,2.47
2019-05-06T13:27:58.829Z,2.47
2019-05-06T13:30:28.997Z,2.33
2019-05-06T13:33:03.830Z,2.35
2019-05-06T13:35:33.165Z,2.27
2019-05-06T13:38:03.458Z,2.83
2019-05-06T13:40:35.164Z,3.25
2019-05-06T13:43:13.507Z,2.90
2019-05-06T13:45:48.363Z,2.92
2019-05-06T13:48:22.730Z,2.87
2019-05-06T13:50:56.623Z,3.02
2019-05-06T13:53:38.768Z,2.77
2019-05-06T13:55:58.547Z,3.00
2019-05-06T13:58:28.682Z,3.20
2019-05-06T14:01:02.766Z,2.50
2019-05-06T14:03:32.335Z,2.30
2019-05-06T14:06:03.002Z,2.60
2019-05-06T14:08:33.347Z,2.60
2019-05-06T14:11:03.434Z,2.37
2019-05-06T14:13:34.893Z,2.77
2019-05-06T14:16:06.184Z,2.98
2019-05-06T14:18:37.824Z,2.90
2019-05-06T14:21:08.160Z,2.77
2019-05-06T14:23:38.413Z,2.80
2019-05-06T14:26:22.869Z,2.80
2019-05-06T14:29:06.841Z,3.30
2019-05-06T14:31:38.727Z,2.25
2019-05-06T14:34:08.913Z,2.85
2019-05-06T14:36:39.114Z,3.00
2019-05-06T14:39:12.813Z,2.90
2019-05-06T14:41:53.273Z,3.02
2019-05-06T14:44:23.335Z,3.17
2019-05-06T14:46:55.324Z,2.87
2019-05-06T14:49:25.426Z,3.02
2019-05-06T14:51:55.566Z,3.33
2019-05-06T14:54:25.652Z,2.98
2019-05-06T14:57:14.593Z,3.37
2019-05-06T14:59:44.765Z,3.00
2019-05-06T15:02:15.538Z,3.00
2019-05-06T15:04:45.630Z,3.30
2019-05-06T15:07:15.760Z,3.20
2019-05-06T15:10:02.166Z,3.62
2019-05-06T15:12:17.609Z,3.72
2019-05-06T15:14:48.534Z,3.37
2019-05-06T15:17:18.653Z,3.65
2019-05-06T15:19:52.281Z,3.62
2019-05-06T15:22:22.603Z,3.52
2019-05-06T15:24:54.306Z,3.70
2019-05-06T15:27:24.456Z,3.45
2019-05-06T15:30:03.286Z,3.60
2019-05-06T15:32:35.361Z,3.52
2019-05-06T15:35:09.261Z,3.92
2019-05-06T15:37:53.371Z,3.27
2019-05-06T15:40:31.986Z,3.98
2019-05-06T15:42:54.787Z,3.80
2019-05-06T15:45:24.896Z,4.08
2019-05-06T15:47:55.040Z,3.87
2019-05-06T15:50:25.166Z,3.70
2019-05-06T15:52:55.292Z,3.75
2019-05-06T15:55:25.467Z,4.25
2019-05-06T15:57:55.590Z,3.40
2019-05-06T16:00:27.181Z,3.80
2019-05-06T16:02:57.427Z,4.17
2019-05-06T16:05:27.609Z,3.25
2019-05-06T16:07:57.732Z,3.72
2019-05-06T16:10:27.830Z,3.62
2019-05-06T16:12:57.914Z,4.28
2019-05-06T16:15:28.036Z,3.55
2019-05-06T16:17:58.198Z,3.72
2019-05-06T16:20:28.318Z,3.45
2019-05-06T16:23:18.238Z,3.98
2019-05-06T16:25:48.361Z,3.33
2019-05-06T16:28:18.458Z,3.92
2019-05-06T16:30:48.731Z,3.77
2019-05-06T16:33:19.223Z,3.95
2019-05-06T16:35:49.433Z,4.17
2019-05-06T16:38:19.591Z,3.85
2019-05-06T16:40:49.734Z,4.55
2019-05-06T16:43:21.993Z,4.05
2019-05-06T16:45:53.148Z,3.85
2019-05-06T16:48:23.606Z,4.00
2019-05-06T16:50:53.817Z,4.10
2019-05-06T16:53:23.950Z,4.70
2019-05-06T16:55:58.678Z,4.20
2019-05-06T16:58:45.086Z,4.97
2019-05-06T17:01:15.217Z,4.05
2019-05-06T17:03:47.316Z,4.62
2019-05-06T17:06:19.045Z,4.80
2019-05-06T17:08:49.240Z,5.30
2019-05-06T17:11:27.961Z,4.87
2019-05-06T17:13:52.286Z,5.90
2019-05-06T17:16:22.431Z,5.15
2019-05-06T17:18:56.525Z,5.53
2019-05-06T17:21:24.285Z,5.78
2019-05-06T17:23:54.426Z,5.28
2019-05-06T17:26:24.602Z,5.25
2019-05-06T17:28:59.475Z,5.25
2019-05-06T17:31:32.253Z,4.90
2019-05-06T17:34:04.158Z,4.92
2019-05-06T17:36:36.015Z,5.10
2019-05-06T17:39:11.248Z,5.05
2019-05-06T17:41:48.224Z,5.00
2019-05-06T17:44:13.552Z,4.70
2019-05-06T17:46:48.361Z,4.87
2019-05-06T17:49:23.018Z,6.37
2019-05-06T17:54:34.297Z,6.08
2019-05-06T17:57:05.761Z,5.70
2019-05-06T17:59:37.600Z,5.53
2019-05-06T18:02:19.252Z,6.08
2019-05-06T18:04:49.473Z,5.85
2019-05-06T18:07:22.297Z,6.12
2019-05-06T18:09:52.393Z,6.15
2019-05-06T18:12:23.178Z,6.20
2019-05-06T18:14:53.611Z,6.05
2019-05-06T18:17:23.649Z,5.50
2019-05-06T18:19:53.770Z,5.67
2019-05-06T18:22:23.947Z,5.72
2019-05-06T18:24:54.070Z,8.95
2019-05-06T18:27:24.185Z,10.85
2019-05-06T18:29:54.366Z,10.23
2019-05-06T18:32:25.574Z,7.63
2019-05-06T18:34:57.250Z,6.75
2019-05-06T18:37:28.901Z,6.78
2019-05-06T18:39:59.029Z,6.17
2019-05-06T18:42:29.190Z,5.97
2019-05-06T18:44:59.318Z,6.70
2019-05-06T18:47:29.512Z,6.97
2019-05-06T18:50:02.142Z,6.62
2019-05-06T18:52:32.250Z,6.42
2019-05-06T18:55:02.865Z,5.87
2019-05-06T18:57:35.358Z,6.22
2019-05-06T19:00:10.681Z,5.53
2019-05-06T19:02:42.330Z,6.30
2019-05-06T19:05:14.388Z,5.87
2019-05-06T19:07:46.751Z,6.30
2019-05-06T19:10:26.287Z,6.17
2019-05-06T19:12:56.520Z,5.22
2019-05-06T19:15:27.062Z,5.80
2019-05-06T19:17:57.202Z,5.92
2019-05-06T19:20:27.385Z,5.92
2019-05-06T19:22:58.190Z,5.70
2019-05-06T19:25:28.451Z,5.65
2019-05-06T19:28:02.369Z,6.00
2019-05-06T19:30:34.961Z,6.12
2019-05-06T19:33:07.026Z,5.62
2019-05-06T19:35:37.236Z,6.70
2019-05-06T19:38:07.323Z,6.67
2019-05-06T19:40:37.502Z,6.33
2019-05-06T19:43:08.689Z,7.20
2019-05-06T19:45:38.912Z,7.17
2019-05-06T19:48:09.173Z,6.60
2019-05-06T19:50:39.422Z,7.22
2019-05-06T19:53:11.706Z,7.33
2019-05-06T19:55:43.884Z,7.58
2019-05-06T19:58:13.088Z,8.08
2019-05-06T20:00:43.206Z,7.92
2019-05-06T20:03:13.457Z,7.67
2019-05-06T20:05:54.495Z,7.60
2019-05-06T20:08:26.394Z,7.33
2019-05-06T20:10:58.274Z,8.23
2019-05-06T20:13:28.452Z,7.92
2019-05-06T20:15:58.642Z,7.85
2019-05-06T20:18:28.820Z,7.72
2019-05-06T20:20:58.950Z,7.22
2019-05-06T20:23:29.132Z,7.92
2019-05-06T20:25:59.256Z,6.95
2019-05-06T20:28:29.417Z,7.22
2019-05-06T20:30:59.578Z,7.28
2019-05-06T20:33:29.717Z,7.90
2019-05-06T20:35:59.834Z,7.62
2019-05-06T20:38:30.027Z,8.25
2019-05-06T20:41:00.228Z,7.42
2019-05-06T20:43:30.324Z,7.15
2019-05-06T20:46:02.645Z,7.95
2019-05-06T20:48:32.633Z,7.35
2019-05-06T20:51:03.556Z,8.35
2019-05-06T20:53:33.917Z,8.08
2019-05-06T20:56:04.030Z,9.15
2019-05-06T20:58:34.181Z,8.48
2019-05-06T21:01:04.434Z,7.47
2019-05-06T21:03:34.642Z,7.78
2019-05-06T21:06:04.783Z,8.08
2019-05-06T21:08:34.922Z,8.15
2019-05-06T21:11:06.083Z,8.68
2019-05-06T21:13:36.269Z,8.45
2019-05-06T21:16:06.417Z,8.83
2019-05-06T21:18:36.635Z,9.15
2019-05-06T21:21:06.818Z,8.38
2019-05-06T21:23:36.999Z,8.70
2019-05-06T21:26:07.202Z,7.47
2019-05-06T21:28:37.294Z,6.62
2019-05-06T21:31:07.507Z,6.22
2019-05-06T21:33:37.608Z,6.92
2019-05-06T21:36:07.807Z,5.70
2019-05-06T21:38:37.868Z,6.22
2019-05-06T21:41:07.999Z,5.10
2019-05-06T21:43:47.001Z,3.70
2019-05-06T21:46:09.912Z,3.80
2019-05-06T21:48:41.966Z,2.87
2019-05-06T21:51:12.692Z,2.58
2019-05-06T21:53:43.170Z,3.20
2019-05-06T21:56:13.277Z,2.83
2019-05-06T21:58:43.416Z,1.57
2019-05-06T22:01:14.282Z,2.08
2019-05-06T22:03:44.514Z,1.55
2019-05-06T22:06:14.700Z,1.27
2019-05-06T22:08:44.907Z,1.80
2019-05-06T22:11:15.014Z,1.02
2019-05-06T22:13:57.794Z,1.00
2019-05-06T22:16:17.097Z,0.93
2019-05-06T22:18:47.201Z,0.70
2019-05-06T22:21:19.025Z,1.00
2019-05-06T22:23:53.250Z,1.40
2019-05-06T22:26:24.087Z,0.65
2019-05-06T22:28:55.561Z,0.98
2019-05-06T22:31:26.473Z,0.78
2019-05-06T22:33:57.126Z,0.85
2019-05-06T22:36:27.265Z,0.70
2019-05-06T22:38:57.513Z,0.70
2019-05-06T22:41:27.648Z,1.00
2019-05-06T22:44:12.169Z,0.72
2019-05-06T22:46:29.478Z,0.70
2019-05-06T22:48:59.625Z,0.70
2019-05-06T22:51:32.161Z,1.10
2019-05-06T22:54:02.662Z,0.70
2019-05-06T22:56:33.049Z,0.90
2019-05-06T22:59:03.478Z,0.90
2019-05-06T23:01:44.081Z,0.72
2019-05-06T23:04:15.846Z,0.70
2019-05-06T23:06:45.985Z,0.80
2019-05-06T23:09:16.140Z,0.80
2019-05-06T23:11:46.334Z,0.85
2019-05-06T23:14:28.054Z,1.32
2019-05-06T23:16:48.188Z,0.70
2019-05-06T23:19:18.270Z,1.00
2019-05-06T23:21:48.466Z,0.90
2019-05-06T23:24:18.643Z,0.90
2019-05-06T23:26:48.764Z,0.90
2019-05-06T23:29:18.873Z,1.00
2019-05-06T23:31:49.021Z,0.88
2019-05-06T23:34:19.129Z,0.80
2019-05-06T23:37:02.653Z,0.90
2019-05-06T23:40:12.655Z,1.15
2019-05-06T23:43:18.990Z,0.98
2019-05-06T23:46:25.833Z,1.25
2019-05-06T23:49:32.757Z,1.00
2019-05-06T23:52:39.322Z,1.30
2019-05-06T23:55:45.575Z,1.10
2019-05-06T23:58:14.780Z,1.77
